Stoke Golding, United Kingdom
Current Conditions -  °F | °C
As of 12:20 AM on Wednesday 26 Nov 2014 (Local Time) from EGBE Reporting Station
Haze Haze  
Wind Chill: 40°   Ceiling: 2200
Heat Index: 45°   Visibility: 2.8mi
Dew Point: 43°   Wind: 8mph
Humidity: 93%   Direction: 40°NE
Pressure: 30"   Gusts: NA
Location:  52.57°N, 1.41°W
Report Text: EGBE 260020Z 04007KT 4500 BR FEW005 BKN022 07/06 Q1016
Loading
Personal Weather Stations






























Interactive Weather Map New forecast layout! Learn more

10-Day Weather Forecast

Advertisements
Track Severe Weather on mobile